createdAt,value
2022-11-10T00:02:18.470Z,86.00
2022-11-10T00:05:05.237Z,85.59
2022-11-10T00:07:51.337Z,85.57
2022-11-10T00:10:57.727Z,85.57
2022-11-10T00:14:02.149Z,85.92
2022-11-10T00:17:06.627Z,86.18
2022-11-10T00:19:52.791Z,85.87
2022-11-10T00:22:40.617Z,85.68
2022-11-10T00:25:28.142Z,85.41
2022-11-10T00:28:14.127Z,85.41
2022-11-10T00:31:05.887Z,85.45
2022-11-10T00:33:52.429Z,85.79
2022-11-10T00:36:38.658Z,86.01
2022-11-10T00:39:25.217Z,85.95
2022-11-10T00:42:11.468Z,85.67
2022-11-10T00:44:57.581Z,85.41
2022-11-10T00:47:46.029Z,85.61
2022-11-10T00:50:32.392Z,85.47
2022-11-10T00:53:19.516Z,85.67
2022-11-10T00:56:06.189Z,85.59
2022-11-10T00:58:52.425Z,85.73
2022-11-10T01:01:38.897Z,85.65
2022-11-10T01:04:25.164Z,85.36
2022-11-10T01:07:11.593Z,85.32
2022-11-10T01:09:57.959Z,85.19
2022-11-10T01:12:44.195Z,85.48
2022-11-10T01:15:30.904Z,85.75
2022-11-10T01:18:17.860Z,85.62
2022-11-10T01:21:05.563Z,85.11
2022-11-10T01:23:52.048Z,85.13
2022-11-10T01:26:38.837Z,85.06
2022-11-10T01:29:25.384Z,85.08
2022-11-10T01:32:11.683Z,85.21
2022-11-10T01:34:57.749Z,85.52
2022-11-10T01:37:45.463Z,85.50
2022-11-10T01:40:31.889Z,85.26
2022-11-10T01:43:18.438Z,85.03
2022-11-10T01:46:06.364Z,84.85
2022-11-10T01:48:57.325Z,84.67
2022-11-10T01:51:49.436Z,84.92
2022-11-10T01:54:39.637Z,84.95
2022-11-10T01:57:26.517Z,85.24
2022-11-10T02:00:13.156Z,85.28
2022-11-10T02:03:24.138Z,85.07
2022-11-10T02:06:12.062Z,84.96
2022-11-10T02:09:00.894Z,84.72
2022-11-10T02:11:47.809Z,84.54
2022-11-10T02:14:34.334Z,84.71
2022-11-10T02:17:20.560Z,84.95
2022-11-10T02:20:10.790Z,85.16
2022-11-10T02:22:57.028Z,84.86
2022-11-10T02:25:43.489Z,84.48
2022-11-10T02:28:33.851Z,84.49
2022-11-10T02:31:20.139Z,84.40
2022-11-10T02:34:06.811Z,84.15
2022-11-10T02:36:52.850Z,84.44
2022-11-10T02:39:38.986Z,84.86
2022-11-10T02:42:25.508Z,85.04
2022-11-10T02:45:11.957Z,84.71
2022-11-10T02:47:58.562Z,84.41
2022-11-10T02:50:44.999Z,84.33
2022-11-10T02:53:31.349Z,84.28
2022-11-10T02:56:17.942Z,84.32
2022-11-10T02:59:04.867Z,84.49
2022-11-10T03:01:50.973Z,84.74
2022-11-10T03:04:37.513Z,85.07
2022-11-10T03:07:23.821Z,84.58
2022-11-10T03:10:10.232Z,84.41
2022-11-10T03:12:58.459Z,84.24
2022-11-10T03:15:44.498Z,84.38
2022-11-10T03:18:30.952Z,84.08
2022-11-10T03:21:17.199Z,84.18
2022-11-10T03:24:03.277Z,84.28
2022-11-10T03:26:49.814Z,84.53
2022-11-10T03:33:04.077Z,84.92
2022-11-10T03:35:48.981Z,84.73
2022-11-10T03:38:33.671Z,84.42
2022-11-10T03:41:20.465Z,84.09
2022-11-10T03:44:06.113Z,84.06
2022-11-10T03:46:51.830Z,84.08
2022-11-10T03:49:36.761Z,84.50
2022-11-10T03:52:21.648Z,84.36
2022-11-10T03:55:06.768Z,84.05
2022-11-10T03:57:51.819Z,83.93
2022-11-10T04:00:36.809Z,83.85
2022-11-10T04:03:22.209Z,83.69
2022-11-10T04:06:29.528Z,83.94
2022-11-10T04:09:14.738Z,84.28
2022-11-10T04:12:23.555Z,84.37
2022-11-10T04:15:29.815Z,84.28
2022-11-10T04:18:20.857Z,84.06
2022-11-10T04:21:05.842Z,84.12
2022-11-10T04:23:51.016Z,84.14
2022-11-10T04:26:39.912Z,84.61
2022-11-10T04:29:24.700Z,84.73
2022-11-10T04:32:09.315Z,84.78
2022-11-10T04:34:54.521Z,84.71
2022-11-10T04:37:39.667Z,84.46
2022-11-10T04:40:24.785Z,84.23
2022-11-10T04:43:09.665Z,84.16
2022-11-10T04:45:54.837Z,84.22
2022-11-10T04:48:40.011Z,84.85
2022-11-10T04:51:33.219Z,84.94
2022-11-10T04:54:18.347Z,84.73
2022-11-10T04:57:03.212Z,84.69
2022-11-10T04:59:48.054Z,84.67
2022-11-10T05:02:38.300Z,84.28
2022-11-10T05:05:24.710Z,84.75
2022-11-10T05:08:09.999Z,85.25
2022-11-10T05:10:54.584Z,85.50
2022-11-10T05:13:40.561Z,85.46
2022-11-10T05:16:25.634Z,85.49
2022-11-10T05:19:10.557Z,85.43
2022-11-10T05:21:55.764Z,85.50
2022-11-10T05:24:40.757Z,85.33
2022-11-10T05:27:25.468Z,85.77
2022-11-10T05:30:10.584Z,86.09
2022-11-10T05:32:55.876Z,86.19
2022-11-10T05:35:40.748Z,86.19
2022-11-10T05:38:25.898Z,86.00
2022-11-10T05:41:11.316Z,85.75
2022-11-10T05:43:56.375Z,85.85
2022-11-10T05:46:41.950Z,86.43
2022-11-10T05:49:26.879Z,86.67
2022-11-10T05:52:11.705Z,86.61
2022-11-10T05:54:56.859Z,86.56
2022-11-10T05:57:43.950Z,86.44
2022-11-10T06:00:31.067Z,86.42
2022-11-10T06:03:18.610Z,86.42
2022-11-10T06:06:04.565Z,86.93
2022-11-10T06:08:49.827Z,86.96
2022-11-10T06:11:34.563Z,86.84
2022-11-10T06:14:19.491Z,87.01
2022-11-10T06:17:04.430Z,87.02
2022-11-10T06:19:49.692Z,86.77
2022-11-10T06:22:34.722Z,86.51
2022-11-10T06:25:19.962Z,86.66
2022-11-10T06:28:06.043Z,86.88
2022-11-10T06:30:50.955Z,87.07
2022-11-10T06:33:36.048Z,86.80
2022-11-10T06:36:21.560Z,86.60
2022-11-10T06:39:06.773Z,86.49
2022-11-10T06:41:51.584Z,86.95
2022-11-10T06:44:36.466Z,87.22
2022-11-10T06:47:21.419Z,87.37
2022-11-10T06:50:07.059Z,87.27
2022-11-10T06:52:57.854Z,87.52
2022-11-10T06:55:42.646Z,87.36
2022-11-10T06:58:27.303Z,87.59
2022-11-10T07:01:12.456Z,87.73
2022-11-10T07:04:18.764Z,87.92
2022-11-10T07:07:02.305Z,87.89
2022-11-10T07:09:47.515Z,87.84
2022-11-10T07:12:32.506Z,87.45
2022-11-10T07:15:17.442Z,87.43
2022-11-10T07:18:03.580Z,87.78
2022-11-10T07:20:48.603Z,88.07
2022-11-10T07:23:34.319Z,88.35
2022-11-10T07:26:19.523Z,88.13
2022-11-10T07:29:04.360Z,87.84
2022-11-10T07:31:49.350Z,87.74
2022-11-10T07:34:34.190Z,87.88
2022-11-10T07:37:19.190Z,88.10
2022-11-10T07:40:04.381Z,88.06
2022-11-10T07:42:49.693Z,87.84
2022-11-10T07:45:34.610Z,87.62
2022-11-10T07:48:20.411Z,87.41
2022-11-10T07:51:05.597Z,87.48
2022-11-10T07:53:50.484Z,87.56
2022-11-10T07:56:35.287Z,87.91
2022-11-10T07:59:20.175Z,87.94
2022-11-10T08:02:05.290Z,87.83
2022-11-10T08:04:50.497Z,87.57
2022-11-10T08:07:35.566Z,87.83
2022-11-10T08:10:20.717Z,87.88
2022-11-10T08:13:08.552Z,87.84
2022-11-10T08:15:53.345Z,88.10
2022-11-10T08:18:38.375Z,88.03
2022-11-10T08:21:23.168Z,88.08
2022-11-10T08:24:08.662Z,88.12
2022-11-10T08:26:53.852Z,87.97
2022-11-10T08:29:38.883Z,88.05
2022-11-10T08:32:23.990Z,88.09
2022-11-10T08:35:08.951Z,87.95
2022-11-10T08:37:54.048Z,87.75
2022-11-10T08:40:39.675Z,87.67
2022-11-10T08:43:25.328Z,87.99
2022-11-10T08:46:10.549Z,87.91
2022-11-10T08:48:55.539Z,88.17
2022-11-10T08:51:40.283Z,88.04
2022-11-10T08:54:25.111Z,87.96
2022-11-10T08:57:10.020Z,87.61
2022-11-10T08:59:55.129Z,88.10
2022-11-10T09:02:40.243Z,88.00
2022-11-10T09:05:25.350Z,88.08
2022-11-10T09:08:11.279Z,87.86
2022-11-10T09:10:56.372Z,87.44
2022-11-10T09:13:41.325Z,87.39
2022-11-10T09:16:26.031Z,87.88
2022-11-10T09:19:15.465Z,88.05
2022-11-10T09:22:04.193Z,87.95
2022-11-10T09:24:49.355Z,87.70
2022-11-10T09:27:37.846Z,87.60
2022-11-10T09:30:22.789Z,87.81
2022-11-10T09:33:08.345Z,88.00
2022-11-10T09:35:58.367Z,88.00
2022-11-10T09:38:43.631Z,87.70
2022-11-10T09:41:29.236Z,87.62
2022-11-10T09:44:21.479Z,87.24
2022-11-10T09:47:19.043Z,87.64
2022-11-10T09:50:17.732Z,87.84
2022-11-10T09:53:05.331Z,87.81
2022-11-10T09:55:55.112Z,87.49
2022-11-10T09:58:45.209Z,87.51
2022-11-10T10:01:49.264Z,87.42
2022-11-10T10:05:06.367Z,87.62
2022-11-10T10:08:10.235Z,87.97
2022-11-10T10:11:12.994Z,87.85
2022-11-10T10:14:12.970Z,87.37
2022-11-10T10:17:04.557Z,87.26
2022-11-10T10:20:21.723Z,86.92
2022-11-10T10:23:54.345Z,87.20
2022-11-10T10:26:50.653Z,87.02
2022-11-10T10:29:41.899Z,86.93
2022-11-10T10:32:27.981Z,86.62
2022-11-10T10:35:18.100Z,86.58
2022-11-10T10:38:05.554Z,86.29
2022-11-10T10:40:52.411Z,85.93
2022-11-10T10:43:41.218Z,85.66
2022-11-10T10:46:32.907Z,85.20
2022-11-10T10:49:31.142Z,85.62
2022-11-10T10:52:24.008Z,86.07
2022-11-10T10:55:12.571Z,85.98
2022-11-10T10:58:00.802Z,85.65
2022-11-10T11:00:49.226Z,85.79
2022-11-10T11:03:52.543Z,85.07
2022-11-10T11:06:37.866Z,84.96
2022-11-10T11:09:43.905Z,84.92
2022-11-10T11:12:30.910Z,85.11
2022-11-10T11:15:28.756Z,85.02
2022-11-10T11:18:17.057Z,84.77
2022-11-10T11:21:14.372Z,84.70
2022-11-10T11:24:22.351Z,84.54
2022-11-10T11:27:22.575Z,84.33
2022-11-10T11:30:15.034Z,84.33
2022-11-10T11:33:16.347Z,84.35
2022-11-10T11:36:26.256Z,84.58
2022-11-10T11:39:42.404Z,84.58
2022-11-10T11:42:35.033Z,84.24
2022-11-10T11:45:37.529Z,83.93
2022-11-10T11:48:34.230Z,84.00
2022-11-10T11:51:26.652Z,83.88
2022-11-10T11:54:30.592Z,84.10
2022-11-10T11:57:22.138Z,84.33
2022-11-10T12:00:12.292Z,84.14
2022-11-10T12:03:16.098Z,83.68
2022-11-10T12:06:16.155Z,83.55
2022-11-10T12:09:08.695Z,83.42
2022-11-10T12:12:11.694Z,83.26
2022-11-10T12:15:18.365Z,83.39
2022-11-10T12:18:09.904Z,83.08
2022-11-10T12:21:02.975Z,82.98
2022-11-10T12:24:40.201Z,82.78
2022-11-10T12:27:31.558Z,82.44
2022-11-10T12:30:17.480Z,82.18
2022-11-10T12:33:14.726Z,82.31
2022-11-10T12:36:05.334Z,82.78
2022-11-10T12:39:13.226Z,82.66
2022-11-10T12:41:59.641Z,83.27
2022-11-10T12:45:04.032Z,83.28
2022-11-10T12:47:49.428Z,83.16
2022-11-10T12:50:55.813Z,83.18
2022-11-10T12:53:42.231Z,83.02
2022-11-10T12:56:45.638Z,83.34
2022-11-10T12:59:34.069Z,83.49
2022-11-10T13:02:26.705Z,83.51
2022-11-10T13:05:14.492Z,82.83
2022-11-10T13:08:32.282Z,82.83
2022-11-10T13:11:17.201Z,82.74
2022-11-10T13:14:04.572Z,82.81
2022-11-10T13:16:53.882Z,83.01
2022-11-10T13:19:38.687Z,83.35
2022-11-10T13:22:30.955Z,83.45
2022-11-10T13:25:35.257Z,83.27
2022-11-10T13:28:48.697Z,82.96
2022-11-10T13:31:39.357Z,82.50
2022-11-10T13:34:35.781Z,82.69
2022-11-10T13:37:32.967Z,82.76
2022-11-10T13:40:18.070Z,83.08
2022-11-10T13:43:03.086Z,83.20
2022-11-10T13:45:48.137Z,83.37
2022-11-10T13:48:38.894Z,83.39
2022-11-10T13:51:37.858Z,83.20
2022-11-10T13:54:55.220Z,83.00
2022-11-10T13:58:19.116Z,82.67
2022-11-10T14:01:16.289Z,82.92
2022-11-10T14:04:02.445Z,82.87
2022-11-10T14:06:51.126Z,83.08
2022-11-10T14:09:39.340Z,83.23
2022-11-10T14:12:27.191Z,83.18
2022-11-10T14:15:16.992Z,83.11
2022-11-10T14:18:02.749Z,83.09
2022-11-10T14:20:55.973Z,82.81
2022-11-10T14:23:43.912Z,82.63
2022-11-10T14:26:35.896Z,82.55
2022-11-10T14:29:39.598Z,82.94
2022-11-10T14:32:25.427Z,83.42
2022-11-10T14:35:26.760Z,83.41
2022-11-10T14:38:33.255Z,83.28
2022-11-10T14:41:20.259Z,83.27
2022-11-10T14:44:07.099Z,83.09
2022-11-10T14:46:53.804Z,83.05
2022-11-10T14:49:38.779Z,83.35
2022-11-10T14:52:23.554Z,83.67
2022-11-10T14:55:19.711Z,83.79
2022-11-10T14:58:11.821Z,83.60
2022-11-10T15:00:57.524Z,83.32
2022-11-10T15:03:42.807Z,83.40
2022-11-10T15:06:29.514Z,83.17
2022-11-10T15:09:26.194Z,83.46
2022-11-10T15:12:27.152Z,83.80
2022-11-10T15:15:21.594Z,83.58
2022-11-10T15:18:24.205Z,83.31
2022-11-10T15:21:12.077Z,83.27
2022-11-10T15:24:00.355Z,83.06
2022-11-10T15:26:45.589Z,83.03
2022-11-10T15:29:30.853Z,83.26
2022-11-10T15:32:20.406Z,83.46
2022-11-10T15:35:24.511Z,83.34
2022-11-10T15:38:14.529Z,83.26
2022-11-10T15:41:15.412Z,83.16
2022-11-10T15:44:23.530Z,83.04
2022-11-10T15:47:13.316Z,83.14
2022-11-10T15:49:59.844Z,83.35
2022-11-10T15:52:44.532Z,83.33
2022-11-10T15:55:33.644Z,83.25
2022-11-10T15:58:21.243Z,83.00
2022-11-10T16:01:10.512Z,83.05
2022-11-10T16:03:55.672Z,83.13
2022-11-10T16:06:40.780Z,83.38
2022-11-10T16:09:25.795Z,83.50
2022-11-10T16:12:19.879Z,83.59
2022-11-10T16:15:05.991Z,83.45
2022-11-10T16:17:50.942Z,83.49
2022-11-10T16:20:35.990Z,83.46
2022-11-10T16:23:20.839Z,83.42
2022-11-10T16:26:07.052Z,83.70
2022-11-10T16:28:52.012Z,83.93
2022-11-10T16:31:37.590Z,84.28
2022-11-10T16:34:22.568Z,84.34
2022-11-10T16:37:11.532Z,84.28
2022-11-10T16:39:56.508Z,84.01
2022-11-10T16:42:42.287Z,84.01
2022-11-10T16:45:29.445Z,83.91
2022-11-10T16:48:17.588Z,83.98
2022-11-10T16:51:02.776Z,84.24
2022-11-10T16:53:48.626Z,84.47
2022-11-10T16:56:33.673Z,84.21
2022-11-10T16:59:18.611Z,84.25
2022-11-10T17:02:03.571Z,84.09
2022-11-10T17:04:48.668Z,83.97
2022-11-10T17:07:33.599Z,83.96
2022-11-10T17:10:20.340Z,84.24
2022-11-10T17:13:05.132Z,84.35
2022-11-10T17:15:53.284Z,84.35
2022-11-10T17:18:38.612Z,84.24
2022-11-10T17:21:27.368Z,84.11
2022-11-10T17:24:16.848Z,84.04
2022-11-10T17:27:01.830Z,84.28
2022-11-10T17:29:46.793Z,84.55
2022-11-10T17:32:57.947Z,84.55
2022-11-10T17:35:44.026Z,84.59
2022-11-10T17:38:31.090Z,84.15
2022-11-10T17:41:18.110Z,84.07
2022-11-10T17:44:03.152Z,83.99
2022-11-10T17:46:48.195Z,84.36
2022-11-10T17:49:33.060Z,84.49
2022-11-10T17:52:18.163Z,84.63
2022-11-10T17:55:02.893Z,84.73
2022-11-10T17:57:48.511Z,84.66
2022-11-10T18:00:33.549Z,84.54
2022-11-10T18:03:21.081Z,84.38
2022-11-10T18:06:06.472Z,84.17
2022-11-10T18:08:51.231Z,84.41
2022-11-10T18:11:36.144Z,84.55
2022-11-10T18:14:21.297Z,84.76
2022-11-10T18:17:06.276Z,84.96
2022-11-10T18:19:51.408Z,84.76
2022-11-10T18:22:36.263Z,84.51
2022-11-10T18:25:21.399Z,84.49
2022-11-10T18:28:06.867Z,84.56
2022-11-10T18:30:51.516Z,84.64
2022-11-10T18:33:36.955Z,84.84
2022-11-10T18:36:22.219Z,84.87
2022-11-10T18:39:07.299Z,84.89
2022-11-10T18:41:51.999Z,84.69
2022-11-10T18:44:38.008Z,84.59
2022-11-10T18:47:22.754Z,84.46
2022-11-10T18:50:08.431Z,84.58
2022-11-10T18:52:53.745Z,84.71
2022-11-10T18:55:41.801Z,84.59
2022-11-10T18:58:30.418Z,84.81
2022-11-10T19:01:16.286Z,85.11
2022-11-10T19:04:01.142Z,84.93
2022-11-10T19:06:46.215Z,84.82
2022-11-10T19:09:32.713Z,84.90
2022-11-10T19:12:17.315Z,84.95
2022-11-10T19:15:02.478Z,85.06
2022-11-10T19:17:47.476Z,85.13
2022-11-10T19:20:35.624Z,85.34
2022-11-10T19:23:21.036Z,85.05
2022-11-10T19:26:09.670Z,85.35
2022-11-10T19:28:55.663Z,85.32
2022-11-10T19:31:41.666Z,85.45
2022-11-10T19:34:26.788Z,85.37
2022-11-10T19:37:11.786Z,85.50
2022-11-10T19:39:56.626Z,85.39
2022-11-10T19:42:41.680Z,85.12
2022-11-10T19:45:26.547Z,85.10
2022-11-10T19:48:11.592Z,85.00
2022-11-10T19:50:58.537Z,85.29
2022-11-10T19:53:45.997Z,85.41
2022-11-10T19:56:36.053Z,85.18
2022-11-10T19:59:22.409Z,85.05
2022-11-10T20:02:12.257Z,85.04
2022-11-10T20:05:15.319Z,84.82
2022-11-10T20:08:12.326Z,84.89
2022-11-10T20:11:03.441Z,85.29
2022-11-10T20:13:54.394Z,85.43
2022-11-10T20:16:39.867Z,85.28
2022-11-10T20:19:24.907Z,85.14
2022-11-10T20:22:11.919Z,85.36
2022-11-10T20:24:56.797Z,85.42
2022-11-10T20:27:41.582Z,85.92
2022-11-10T20:30:26.887Z,86.22
2022-11-10T20:33:12.154Z,86.05
2022-11-10T20:36:06.564Z,85.88
2022-11-10T20:38:53.205Z,85.73
2022-11-10T20:41:38.186Z,85.60
2022-11-10T20:44:23.057Z,85.73
2022-11-10T20:47:07.721Z,85.97
2022-11-10T20:49:52.953Z,85.98
2022-11-10T20:52:37.990Z,85.85
2022-11-10T20:55:51.583Z,85.63
2022-11-10T20:58:28.663Z,85.79
2022-11-10T21:01:15.062Z,86.21
2022-11-10T21:04:01.695Z,86.49
2022-11-10T21:06:46.781Z,86.47
2022-11-10T21:09:31.695Z,86.40
2022-11-10T21:12:35.146Z,86.56
2022-11-10T21:15:20.903Z,86.12
2022-11-10T21:18:05.732Z,86.05
2022-11-10T21:20:53.682Z,86.07
2022-11-10T21:23:38.870Z,86.43
2022-11-10T21:26:23.936Z,86.74
2022-11-10T21:29:09.536Z,86.43
2022-11-10T21:31:54.379Z,86.13
2022-11-10T21:34:39.198Z,85.94
2022-11-10T21:37:25.073Z,85.94
2022-11-10T21:40:11.496Z,86.35
2022-11-10T21:42:57.406Z,86.38
2022-11-10T21:45:42.077Z,86.77
2022-11-10T21:48:27.179Z,86.75
2022-11-10T21:51:13.619Z,86.55
2022-11-10T21:53:58.361Z,86.73
2022-11-10T21:56:43.583Z,86.59
2022-11-10T21:59:28.792Z,86.49
2022-11-10T22:02:14.355Z,86.59
2022-11-10T22:04:59.277Z,86.79
2022-11-10T22:07:44.424Z,87.11
2022-11-10T22:10:47.797Z,87.08
2022-11-10T22:13:51.149Z,86.87
2022-11-10T22:17:05.759Z,87.01
2022-11-10T22:19:50.417Z,87.09
2022-11-10T22:22:35.182Z,87.16
2022-11-10T22:25:20.053Z,87.20
2022-11-10T22:28:05.288Z,87.40
2022-11-10T22:30:50.289Z,87.63
2022-11-10T22:33:37.719Z,87.56
2022-11-10T22:36:22.559Z,87.40
2022-11-10T22:39:08.218Z,87.42
2022-11-10T22:42:11.963Z,87.04
2022-11-10T22:44:57.717Z,87.44
2022-11-10T22:48:01.191Z,87.45
2022-11-10T22:50:54.114Z,87.52
2022-11-10T22:53:38.839Z,87.67
2022-11-10T22:56:24.335Z,87.34
2022-11-10T22:59:10.272Z,86.98
2022-11-10T23:01:55.452Z,86.78
2022-11-10T23:04:40.397Z,86.87
2022-11-10T23:07:25.282Z,86.92
2022-11-10T23:10:10.160Z,87.09
2022-11-10T23:12:55.436Z,87.24
2022-11-10T23:15:44.616Z,87.30
2022-11-10T23:18:29.702Z,87.60
2022-11-10T23:21:17.090Z,87.34
2022-11-10T23:24:02.120Z,87.10
2022-11-10T23:26:46.912Z,87.03
2022-11-10T23:29:31.697Z,87.00
2022-11-10T23:32:16.543Z,87.13
2022-11-10T23:35:01.049Z,87.43
2022-11-10T23:37:46.039Z,87.79
2022-11-10T23:40:30.897Z,87.42
2022-11-10T23:43:16.143Z,87.50
2022-11-10T23:46:06.905Z,87.31
2022-11-10T23:48:52.207Z,87.52
2022-11-10T23:51:37.146Z,87.82
2022-11-10T23:54:22.065Z,87.96
2022-11-10T23:57:07.198Z,87.80
2022-11-10T23:59:51.872Z,87.40
